Roosevelt, Arizona
Current Conditions -  °F | °C
As of 3:55 AM on Friday 28 Nov 2014 (Local Time) from KIWA Reporting Station
Haze Haze  
Wind Chill: 40°   Ceiling: 700
Heat Index: 45°   Visibility: 1.5mi
Dew Point: 21°   Wind: 8mph
Humidity: 39%   Direction: 90°E
Pressure: 30.07"   Gusts: NA
Location:  33.67°N, 111.14°W
Report Text: KIWA 281055Z AUTO 09007KT 1 1/2SM HZ VV007 07/M06 A3007 RMK AO2 VIS 1/2V5
Loading
Personal Weather Stations






























Interactive Weather Map New forecast layout! Learn more

10-Day Weather Forecast

Advertisements
Track Severe Weather on mobile